Time;durP1;ratioP1;P1;durP2;ratioP2;P2;SDS_P1;SDS_P2;PMS_P1;PMS_P2;Temp;Humidity;BMP_temperature;BMP_pressure;BME280_temperature;BME280_humidity;BME280_pressure;Samples;Min_cycle;Max_cycle;Signal;HPM_P1;HPM_P2
2023/07/21 00:01:36;;;;;;;12.35;5.05;;;;;;;21.05;100.00;97223.03;5053241;28;20534;-73
2023/07/21 00:04:03;;;;;;;12.30;5.95;;;;;;;21.01;100.00;97221.66;5066874;28;20158;-74
2023/07/21 00:06:29;;;;;;;8.00;5.25;;;;;;;20.99;100.00;97231.88;5049894;28;20032;-73
2023/07/21 00:08:54;;;;;;;7.45;5.22;;;;;;;20.90;100.00;97240.19;5049953;28;20033;-74
2023/07/21 00:11:20;;;;;;;8.07;5.93;;;;;;;20.88;100.00;97240.38;5049787;28;20475;-74
2023/07/21 00:13:45;;;;;;;9.32;5.18;;;;;;;20.71;100.00;97232.31;5033408;28;20098;-74
2023/07/21 00:16:11;;;;;;;9.82;5.68;;;;;;;20.67;100.00;97234.53;5049834;28;20024;-74
2023/07/21 00:18:37;;;;;;;12.57;5.40;;;;;;;20.67;100.00;97234.53;5050962;28;20025;-73
2023/07/21 00:21:05;;;;;;;8.10;5.43;;;;;;;20.62;100.00;97223.28;5032967;28;20033;-74
2023/07/21 00:23:31;;;;;;;9.60;5.55;;;;;;;20.52;100.00;97219.84;5049666;28;20024;-74
2023/07/21 00:25:57;;;;;;;7.93;5.32;;;;;;;20.57;100.00;97225.66;5033151;28;20123;-74
2023/07/21 00:28:25;;;;;;;11.10;5.55;;;;;;;20.47;100.00;97217.63;5032887;28;20035;-74
2023/07/21 00:30:51;;;;;;;8.95;5.43;;;;;;;20.44;100.00;97214.38;5033086;28;20076;-74
2023/07/21 00:33:16;;;;;;;11.27;6.22;;;;;;;20.46;100.00;97217.78;5050563;28;20130;-74
2023/07/21 00:35:42;;;;;;;11.98;5.60;;;;;;;20.39;100.00;97212.19;5033003;28;20025;-74
2023/07/21 00:38:08;;;;;;;15.02;6.40;;;;;;;20.37;100.00;97216.91;5049247;28;20028;-74
2023/07/21 00:40:37;;;;;;;10.63;5.70;;;;;;;20.39;100.00;97217.63;5050420;28;20029;-73
2023/07/21 00:43:03;;;;;;;10.25;5.65;;;;;;;20.42;100.00;97213.72;5033186;28;20028;-74
2023/07/21 00:45:33;;;;;;;14.43;6.28;;;;;;;20.31;100.00;97203.97;5032558;28;20044;-74
2023/07/21 00:48:01;;;;;;;8.90;6.10;;;;;;;20.38;100.00;97201.47;5032794;28;20467;-73
2023/07/21 00:50:27;;;;;;;10.68;5.60;;;;;;;20.39;100.00;97214.91;5050286;28;20036;-74
2023/07/21 00:52:52;;;;;;;16.02;5.72;;;;;;;20.32;100.00;97207.56;5049301;28;20025;-74
2023/07/21 00:55:18;;;;;;;11.63;6.18;;;;;;;20.27;100.00;97212.63;5032315;28;20025;-74
2023/07/21 00:57:44;;;;;;;12.05;6.10;;;;;;;20.22;100.00;97207.66;5049273;28;20404;-74
2023/07/21 01:00:13;;;;;;;10.93;6.20;;;;;;;20.24;100.00;97199.34;5032718;28;20499;-74
2023/07/21 01:02:39;;;;;;;9.13;5.78;;;;;;;20.20;100.00;97208.81;5032878;28;20511;-74
2023/07/21 01:05:05;;;;;;;11.75;6.13;;;;;;;20.20;100.00;97204.25;5032596;28;20057;-74
2023/07/21 01:07:33;;;;;;;14.93;6.03;;;;;;;20.19;100.00;97209.81;5032430;28;20025;-74
2023/07/21 01:09:59;;;;;;;10.40;6.40;;;;;;;20.16;100.00;97202.00;5049173;28;20055;-74
2023/07/21 01:12:25;;;;;;;12.80;6.43;;;;;;;20.15;100.00;97190.28;5032489;28;20045;-75
2023/07/21 01:14:51;;;;;;;10.90;6.20;;;;;;;20.12;100.00;97187.91;5032462;28;20532;-74
2023/07/21 01:17:18;;;;;;;12.98;6.15;;;;;;;20.08;100.00;97189.25;5048948;28;20112;-75
2023/07/21 01:19:48;;;;;;;11.60;6.47;;;;;;;20.08;100.00;97200.13;5032634;28;20036;-74
2023/07/21 01:22:34;;;;;;;17.50;8.07;;;;;;;20.09;100.00;97211.84;5049276;28;20024;-74
2023/07/21 01:25:07;;;;;;;26.67;15.77;;;;;;;20.14;100.00;97209.47;5069060;28;20487;-74
2023/07/21 01:27:39;;;;;;;13.43;6.90;;;;;;;20.16;100.00;97202.88;5070689;28;20048;-74
2023/07/21 01:30:10;;;;;;;9.00;6.32;;;;;;;20.08;100.00;97202.84;5057032;28;20480;-74
2023/07/21 01:32:38;;;;;;;9.13;6.47;;;;;;;20.03;100.00;97208.75;5073662;28;20110;-74
2023/07/21 01:35:07;;;;;;;9.55;5.85;;;;;;;20.08;100.00;97207.41;5072864;28;20028;-75
2023/07/21 01:37:35;;;;;;;15.35;7.13;;;;;;;20.20;100.00;97214.25;5072556;28;20032;-74
2023/07/21 01:40:02;;;;;;;14.43;6.32;;;;;;;20.20;100.00;97219.69;5056232;28;20043;-74
2023/07/21 01:42:30;;;;;;;8.88;5.90;;;;;;;20.29;100.00;97222.31;5072935;28;20119;-74
2023/07/21 01:44:56;;;;;;;12.73;6.60;;;;;;;20.29;100.00;97218.75;5073939;28;20059;-74
2023/07/21 01:47:24;;;;;;;13.18;6.78;;;;;;;20.27;100.00;97209.91;5055859;28;20119;-74
2023/07/21 01:49:50;;;;;;;10.38;6.50;;;;;;;20.29;100.00;97210.59;5072532;28;20403;-74
2023/07/21 01:52:17;;;;;;;15.77;6.28;;;;;;;20.23;100.00;97203.94;5056080;28;20550;-74
2023/07/21 01:54:47;;;;;;;13.93;6.38;;;;;;;20.19;100.00;97223.41;5072390;28;20107;-74
2023/07/21 01:57:18;;;;;;;12.15;6.22;;;;;;;20.08;100.00;97224.56;5055776;28;20025;-73
2023/07/21 01:59:45;;;;;;;11.80;6.45;;;;;;;20.09;100.00;97233.56;5073344;28;20086;-74
2023/07/21 02:02:12;;;;;;;12.40;6.45;;;;;;;20.02;100.00;97242.38;5042436;28;20111;-74
2023/07/21 02:04:38;;;;;;;15.20;6.45;;;;;;;19.99;100.00;97248.09;5052177;28;20031;-74
2023/07/21 02:07:05;;;;;;;14.00;5.90;;;;;;;19.87;100.00;97237.69;5035862;28;20032;-74
2023/07/21 02:09:31;;;;;;;13.60;6.93;;;;;;;19.88;100.00;97231.22;5035671;28;20112;-74
2023/07/21 02:11:57;;;;;;;9.88;6.43;;;;;;;19.69;100.00;97240.44;5051885;28;20064;-73
2023/07/21 02:14:23;;;;;;;14.88;6.75;;;;;;;19.60;100.00;97229.66;5052187;28;20024;-73
2023/07/21 02:16:49;;;;;;;11.65;6.00;;;;;;;19.59;100.00;97233.41;5045080;28;20502;-74
2023/07/21 02:19:14;;;;;;;13.57;5.80;;;;;;;19.54;100.00;97241.16;5072099;28;20453;-73
2023/07/21 02:21:48;;;;;;;23.65;6.80;;;;;;;19.39;100.00;97239.03;5071914;28;20040;-75
2023/07/21 02:24:13;;;;;;;12.20;6.53;;;;;;;19.40;100.00;97258.88;5055901;28;20056;-74
2023/07/21 02:26:39;;;;;;;28.88;7.28;;;;;;;19.40;100.00;97253.44;5072366;28;20071;-74
2023/07/21 02:29:10;;;;;;;15.15;6.75;;;;;;;19.35;100.00;97247.59;5055239;28;20119;-74
2023/07/21 02:31:35;;;;;;;10.70;6.13;;;;;;;19.44;100.00;97255.66;5055194;28;20068;-74
2023/07/21 02:34:01;;;;;;;14.43;6.85;;;;;;;19.38;100.00;97255.44;5054929;28;20071;-74
2023/07/21 02:36:27;;;;;;;13.18;7.07;;;;;;;19.26;100.00;97252.09;5071828;28;20086;-74
2023/07/21 02:38:52;;;;;;;19.67;6.47;;;;;;;19.29;100.00;97251.78;5055199;28;20032;-74
2023/07/21 02:41:17;;;;;;;13.15;6.72;;;;;;;19.37;100.00;97261.84;5071815;28;20085;-73
2023/07/21 02:43:43;;;;;;;14.18;7.05;;;;;;;19.32;100.00;97261.44;5071611;28;20049;-73
2023/07/21 02:46:08;;;;;;;12.85;6.22;;;;;;;19.22;100.00;97261.56;5055096;28;20479;-74
2023/07/21 02:48:34;;;;;;;15.70;7.00;;;;;;;19.18;100.00;97257.44;5054908;28;20030;-74
2023/07/21 02:51:00;;;;;;;15.75;6.78;;;;;;;19.19;100.00;97263.72;5052798;28;20068;-74
2023/07/21 02:53:26;;;;;;;18.55;6.95;;;;;;;19.30;100.00;97268.91;5051630;28;20028;-73
2023/07/21 02:55:52;;;;;;;11.13;7.28;;;;;;;19.35;100.00;97266.56;5051455;28;20056;-74
2023/07/21 02:58:17;;;;;;;14.90;6.47;;;;;;;19.33;100.00;97266.75;5051271;28;20021;-74
2023/07/21 03:00:43;;;;;;;11.88;6.80;;;;;;;19.45;100.00;97278.22;5034607;28;20033;-74
2023/07/21 03:03:16;;;;;;;21.05;6.13;;;;;;;19.50;100.00;97270.50;5034392;28;20032;-74
2023/07/21 03:05:42;;;;;;;15.45;6.80;;;;;;;19.50;100.00;97272.34;5051321;28;20447;-74
2023/07/21 03:08:08;;;;;;;22.35;7.40;;;;;;;19.42;100.00;97273.13;5053590;28;20050;-74
2023/07/21 03:10:34;;;;;;;17.70;7.70;;;;;;;19.38;100.00;97271.72;5071023;28;20047;-73
2023/07/21 03:12:59;;;;;;;12.63;7.15;;;;;;;19.39;100.00;97270.69;5070745;28;20028;-73
2023/07/21 03:15:25;;;;;;;12.75;6.57;;;;;;;19.38;100.00;97277.13;5071268;28;20028;-73
2023/07/21 03:17:51;;;;;;;12.50;6.80;;;;;;;19.39;100.00;97267.97;5071348;28;20554;-74
2023/07/21 03:20:16;;;;;;;15.40;7.03;;;;;;;19.37;100.00;97270.00;5070704;28;20479;-74
2023/07/21 03:22:42;;;;;;;19.23;7.75;;;;;;;19.49;100.00;97282.34;5070977;28;20502;-74
2023/07/21 03:25:09;;;;;;;21.88;7.97;;;;;;;19.52;100.00;97284.75;5053810;28;20039;-74
2023/07/21 03:27:35;;;;;;;35.15;9.85;;;;;;;19.62;100.00;97293.66;5054298;28;20103;-73
2023/07/21 03:30:04;;;;;;;15.35;7.90;;;;;;;19.67;100.00;97298.59;5053780;28;20071;-74
2023/07/21 03:32:29;;;;;;;44.53;11.45;;;;;;;19.70;100.00;97293.72;5070706;28;20142;-74
2023/07/21 03:34:55;;;;;;;33.85;11.32;;;;;;;19.74;100.00;97295.09;5054033;28;20029;-73
2023/07/21 03:37:25;;;;;;;21.92;7.80;;;;;;;19.79;100.00;97305.47;5070349;28;20085;-73
2023/07/21 03:39:51;;;;;;;15.60;7.55;;;;;;;19.77;100.00;97302.94;5071527;28;20024;-73
2023/07/21 03:42:16;;;;;;;24.48;9.15;;;;;;;19.85;100.00;97305.69;5070264;28;20163;-74
2023/07/21 03:44:47;;;;;;;33.60;12.38;;;;;;;19.83;100.00;97302.31;5071621;28;20044;-73
2023/07/21 03:47:12;;;;;;;28.95;7.20;;;;;;;19.82;100.00;97297.88;5035063;28;20025;-73
2023/07/21 03:49:38;;;;;;;13.10;6.88;;;;;;;19.96;100.00;97299.16;5033415;28;20112;-73
2023/07/21 03:52:04;;;;;;;16.90;7.05;;;;;;;19.99;100.00;97294.25;5033486;28;20091;-73
2023/07/21 03:54:30;;;;;;;21.85;6.97;;;;;;;20.03;100.00;97290.22;5033504;28;20028;-72
2023/07/21 03:56:55;;;;;;;21.17;7.85;;;;;;;20.18;100.00;97295.06;5050334;28;20492;-73
2023/07/21 03:59:21;;;;;;;15.50;7.18;;;;;;;20.22;100.00;97296.44;5049976;28;20119;-77
2023/07/21 04:01:47;;;;;;;17.45;6.65;;;;;;;20.25;100.00;97296.09;5036617;28;20039;-79
2023/07/21 04:04:12;;;;;;;14.73;6.65;;;;;;;20.27;100.00;97291.41;5043219;28;20052;-78
2023/07/21 04:06:38;;;;;;;20.10;7.30;;;;;;;20.27;100.00;97288.69;5042502;28;20071;-78
2023/07/21 04:09:05;;;;;;;20.13;7.70;;;;;;;20.25;100.00;97282.53;5042663;28;20040;-79
2023/07/21 04:11:31;;;;;;;30.88;11.57;;;;;;;20.34;100.00;97292.44;5037038;28;20051;-77
2023/07/21 04:13:59;;;;;;;33.08;12.38;;;;;;;20.47;100.00;97284.72;5053349;28;20040;-74
2023/07/21 04:16:25;;;;;;;29.52;10.63;;;;;;;20.57;100.00;97288.16;5057709;28;20079;-73
2023/07/21 04:18:50;;;;;;;26.10;8.65;;;;;;;20.53;100.00;97293.06;5067037;28;20070;-74
2023/07/21 04:21:16;;;;;;;22.55;8.50;;;;;;;20.49;100.00;97285.41;5068850;28;20571;-73
2023/07/21 04:23:41;;;;;;;18.88;7.63;;;;;;;20.65;100.00;97296.34;5049905;28;20028;-73
2023/07/21 04:26:07;;;;;;;27.70;8.70;;;;;;;20.70;100.00;97309.47;5067041;28;20481;-73
2023/07/21 04:28:32;;;;;;;17.85;7.80;;;;;;;20.82;100.00;97300.00;5058600;28;20025;-82
2023/07/21 04:30:58;;;;;;;28.33;7.35;;;;;;;20.74;100.00;97289.91;5049123;28;20079;-74
2023/07/21 04:33:23;;;;;;;16.75;7.05;;;;;;;20.89;100.00;97307.31;5048001;28;20503;-74
2023/07/21 04:35:51;;;;;;;14.52;6.90;;;;;;;21.02;100.00;97301.41;5032651;28;20029;-73
2023/07/21 04:38:16;;;;;;;15.45;8.10;;;;;;;21.09;100.00;97310.66;5049282;28;20107;-74
2023/07/21 04:40:44;;;;;;;27.35;8.63;;;;;;;21.14;100.00;97302.81;5049282;28;20429;-75
2023/07/21 04:43:11;;;;;;;30.38;9.25;;;;;;;21.28;100.00;97307.63;5049191;28;20024;-74
2023/07/21 04:45:40;;;;;;;21.92;8.98;;;;;;;21.30;100.00;97304.72;5032573;28;20036;-75
2023/07/21 04:48:06;;;;;;;18.95;10.85;;;;;;;21.31;100.00;97301.00;5049362;28;20017;-75
2023/07/21 04:50:31;;;;;;;32.88;9.38;;;;;;;21.38;100.00;97302.03;5032908;28;20029;-73
2023/07/21 04:52:57;;;;;;;29.23;9.70;;;;;;;21.42;100.00;97314.25;5032198;28;20435;-74
2023/07/21 04:55:22;;;;;;;23.50;9.18;;;;;;;21.50;100.00;97309.69;5032594;28;20029;-74
2023/07/21 04:57:48;;;;;;;35.58;10.15;;;;;;;21.67;100.00;97309.69;5050346;28;20043;-74
2023/07/21 05:00:18;;;;;;;14.88;7.90;;;;;;;21.84;100.00;97309.53;5049430;28;20021;-75
2023/07/21 05:02:44;;;;;;;20.40;8.35;;;;;;;21.98;100.00;97310.75;5048488;28;20029;-74
2023/07/21 05:05:10;;;;;;;21.80;10.45;;;;;;;22.55;100.00;97319.66;5037064;28;20111;-74
2023/07/21 05:07:36;;;;;;;24.23;10.23;;;;;;;23.73;100.00;97309.34;5052495;28;20060;-74
2023/07/21 05:10:02;;;;;;;26.15;9.80;;;;;;;24.45;100.00;97295.22;5049392;28;20467;-75
2023/07/21 05:12:27;;;;;;;19.55;9.15;;;;;;;24.49;100.00;97294.63;5049077;28;20064;-75
2023/07/21 05:14:53;;;;;;;20.85;8.55;;;;;;;24.31;100.00;97296.03;5032305;28;20068;-74
2023/07/21 05:17:19;;;;;;;14.55;6.88;;;;;;;24.15;100.00;97292.44;5050281;28;20064;-75
2023/07/21 05:19:44;;;;;;;14.98;7.25;;;;;;;24.12;100.00;97295.53;5048849;28;20452;-75
2023/07/21 05:22:10;;;;;;;12.60;7.28;;;;;;;24.08;100.00;97285.16;5050228;28;20060;-74
2023/07/21 05:24:36;;;;;;;15.50;7.10;;;;;;;24.54;100.00;97292.22;5049119;28;20451;-75
2023/07/21 05:27:01;;;;;;;9.90;6.78;;;;;;;25.13;100.00;97293.00;5050536;28;20029;-74
2023/07/21 05:29:27;;;;;;;15.20;7.10;;;;;;;26.01;100.00;97284.50;5049210;28;20029;-75
2023/07/21 05:31:52;;;;;;;12.93;6.55;;;;;;;27.26;100.00;97283.41;5031931;28;20082;-74
2023/07/21 05:34:20;;;;;;;57.17;35.70;;;;;;;28.37;100.00;97280.00;5032370;28;20029;-75
2023/07/21 05:36:46;;;;;;;11.52;6.03;;;;;;;29.66;100.00;97272.59;5048676;28;20495;-74
2023/07/21 05:39:15;;;;;;;13.38;7.40;;;;;;;30.45;98.46;97272.91;5048738;28;20024;-73
2023/07/21 05:41:40;;;;;;;20.75;7.88;;;;;;;30.35;98.15;97272.53;5050132;28;20107;-73
2023/07/21 05:44:06;;;;;;;14.85;8.00;;;;;;;30.33;96.37;97274.66;5032025;28;20072;-74
2023/07/21 05:46:31;;;;;;;16.55;7.65;;;;;;;29.82;99.38;97276.78;5050067;28;20016;-74
2023/07/21 05:48:57;;;;;;;11.00;6.78;;;;;;;29.69;100.00;97276.84;5048585;28;20544;-73
2023/07/21 05:51:23;;;;;;;17.08;7.40;;;;;;;29.98;100.00;97274.34;5048763;28;20029;-73
2023/07/21 05:53:48;;;;;;;17.88;7.60;;;;;;;31.06;93.51;97281.22;5048527;28;20037;-74
2023/07/21 05:56:14;;;;;;;16.50;8.70;;;;;;;31.83;87.00;97267.66;5048583;28;20150;-74
2023/07/21 05:58:41;;;;;;;11.85;6.13;;;;;;;32.51;81.01;97257.81;5032074;28;20064;-75
2023/07/21 06:01:06;;;;;;;13.52;7.05;;;;;;;33.25;75.62;97259.00;5048447;28;20025;-75
2023/07/21 06:03:32;;;;;;;8.15;5.57;;;;;;;33.92;69.00;97253.66;5048853;28;20028;-75
2023/07/21 06:05:58;;;;;;;9.80;6.03;;;;;;;33.76;63.87;97250.63;5031762;28;20029;-75
2023/07/21 06:08:24;;;;;;;9.00;6.10;;;;;;;33.00;70.37;97252.88;5048577;28;20025;-74
2023/07/21 06:10:56;;;;;;;10.52;5.57;;;;;;;33.41;66.60;97255.41;5048610;28;20021;-74
2023/07/21 06:13:22;;;;;;;16.65;5.35;;;;;;;33.66;63.98;97244.00;5050106;28;20082;-74
2023/07/21 06:15:47;;;;;;;11.52;5.10;;;;;;;33.93;62.79;97238.69;5052215;28;20025;-74
2023/07/21 06:18:13;;;;;;;7.20;5.50;;;;;;;34.52;59.00;97243.59;5035162;28;20036;-74
2023/07/21 06:20:38;;;;;;;12.95;5.82;;;;;;;34.65;57.83;97242.44;5053118;28;20103;-75
2023/07/21 06:23:04;;;;;;;13.95;5.43;;;;;;;33.99;61.04;97246.03;5035263;28;20033;-75
2023/07/21 06:25:29;;;;;;;11.25;5.63;;;;;;;34.67;59.59;97245.84;5052112;28;20104;-74
2023/07/21 06:28:14;;;;;;;13.18;5.82;;;;;;;34.52;58.96;97240.84;5051621;28;20067;-75
2023/07/21 06:30:39;;;;;;;12.85;6.18;;;;;;;34.67;60.97;97243.06;5051735;28;20059;-75
2023/07/21 06:33:07;;;;;;;14.00;5.90;;;;;;;34.93;58.45;97238.69;5052940;28;20123;-74
2023/07/21 06:35:34;;;;;;;15.40;6.57;;;;;;;35.14;57.71;97247.09;5035487;28;20023;-74
2023/07/21 06:38:00;;;;;;;18.95;5.93;;;;;;;35.66;55.81;97247.47;5060140;28;20075;-74
2023/07/21 06:40:25;;;;;;;14.65;5.45;;;;;;;35.61;53.08;97235.44;5071671;28;20029;-74
2023/07/21 06:42:51;;;;;;;12.15;5.15;;;;;;;35.20;54.67;97240.47;5054690;28;20028;-74
2023/07/21 06:45:17;;;;;;;10.35;5.65;;;;;;;34.96;55.50;97235.38;5071187;28;20028;-74
2023/07/21 06:47:42;;;;;;;13.65;4.63;;;;;;;35.99;51.85;97226.09;5070233;28;20031;-74
2023/07/21 06:50:08;;;;;;;10.30;5.15;;;;;;;35.05;53.23;97214.38;5081504;28;20071;-73
2023/07/21 06:52:34;;;;;;;16.95;5.10;;;;;;;35.20;54.12;97222.94;5032088;28;20037;-73
2023/07/21 06:55:00;;;;;;;11.00;5.55;;;;;;;35.95;52.18;97208.22;5048312;28;20040;-74
2023/07/21 06:57:26;;;;;;;14.35;5.38;;;;;;;35.96;52.42;97221.06;5049849;28;20024;-73
2023/07/21 06:59:52;;;;;;;12.57;5.15;;;;;;;35.13;55.00;97225.09;5032032;28;20047;-74
2023/07/21 07:02:18;;;;;;;9.32;4.88;;;;;;;35.14;54.90;97212.84;5048337;28;20442;-75
2023/07/21 07:04:43;;;;;;;13.50;5.00;;;;;;;35.49;53.02;97216.06;5031994;28;20029;-75
2023/07/21 07:07:09;;;;;;;12.68;5.32;;;;;;;36.31;50.70;97218.59;5031591;28;20532;-75
2023/07/21 07:09:34;;;;;;;11.73;5.90;;;;;;;36.73;49.26;97219.47;5048342;28;20048;-75
2023/07/21 07:12:00;;;;;;;15.75;11.10;;;;;;;36.67;48.20;97214.16;5048313;28;20112;-73
2023/07/21 07:14:27;;;;;;;10.65;7.57;;;;;;;35.71;50.60;97218.84;5049370;28;20082;-75
2023/07/21 07:16:52;;;;;;;18.45;5.88;;;;;;;34.38;54.51;97225.63;5031676;28;20043;-75
2023/07/21 07:19:19;;;;;;;9.27;5.32;;;;;;;34.63;54.39;97216.84;5047865;28;20029;-75
2023/07/21 07:21:44;;;;;;;12.07;6.30;;;;;;;34.82;53.70;97224.63;5048307;28;20496;-75
2023/07/21 07:24:10;;;;;;;13.50;5.00;;;;;;;36.02;49.69;97214.44;5030900;28;20040;-75
2023/07/21 07:26:35;;;;;;;10.60;5.15;;;;;;;36.45;47.75;97208.69;5031276;28;20025;-75
2023/07/21 07:29:03;;;;;;;13.07;5.65;;;;;;;37.60;45.29;97204.03;5049041;28;20056;-75
2023/07/21 07:31:30;;;;;;;14.75;5.03;;;;;;;37.89;44.36;97203.28;5030926;28;20100;-75
2023/07/21 07:33:55;;;;;;;10.50;5.35;;;;;;;37.49;44.20;97200.38;5047964;28;20143;-74
2023/07/21 07:36:21;;;;;;;8.55;5.05;;;;;;;38.05;43.68;97200.53;5047469;28;20032;-75
2023/07/21 07:38:47;;;;;;;7.95;4.53;;;;;;;38.52;42.25;97195.47;5063427;28;20436;-77
2023/07/21 07:41:13;;;;;;;8.93;5.03;;;;;;;38.63;41.14;97196.31;5068314;28;20032;-74
2023/07/21 07:43:40;;;;;;;6.50;4.55;;;;;;;38.07;41.95;97198.28;5067356;28;20084;-74
2023/07/21 07:46:07;;;;;;;9.63;5.18;;;;;;;38.06;41.97;97199.38;5050851;28;20067;-74
2023/07/21 07:48:33;;;;;;;9.20;4.82;;;;;;;38.60;40.78;97191.28;5050805;28;20036;-74
2023/07/21 07:51:02;;;;;;;8.70;4.70;;;;;;;38.57;40.90;97189.91;5068768;28;20048;-74
2023/07/21 07:53:28;;;;;;;14.18;4.95;;;;;;;39.63;40.15;97192.34;5050581;28;20089;-74
2023/07/21 07:55:54;;;;;;;19.48;4.93;;;;;;;39.98;39.71;97180.94;5067354;28;20032;-74
2023/07/21 07:58:20;;;;;;;6.00;4.70;;;;;;;40.64;38.32;97193.63;5068021;28;20452;-75
2023/07/21 08:00:45;;;;;;;7.43;4.57;;;;;;;40.53;38.42;97187.25;5068125;28;20033;-74
2023/07/21 08:03:11;;;;;;;11.93;4.32;;;;;;;40.99;37.33;97185.69;5050676;28;20541;-74
2023/07/21 08:05:38;;;;;;;9.40;4.93;;;;;;;39.52;38.67;97197.19;5050557;28;20109;-74
2023/07/21 08:08:04;;;;;;;8.73;4.93;;;;;;;39.64;39.56;97201.59;5068692;28;20024;-75
2023/07/21 08:10:30;;;;;;;9.30;4.88;;;;;;;40.93;37.39;97191.63;5067221;28;20032;-74
2023/07/21 08:12:57;;;;;;;10.18;4.63;;;;;;;40.63;37.64;97195.59;5066711;28;20150;-75
2023/07/21 08:15:23;;;;;;;7.65;4.13;;;;;;;40.75;37.20;97201.63;5066978;28;20020;-75
2023/07/21 08:17:49;;;;;;;19.33;4.80;;;;;;;41.40;36.67;97188.03;5066846;28;20504;-75
2023/07/21 08:20:16;;;;;;;9.13;4.28;;;;;;;41.94;34.39;97184.72;5067128;28;20094;-75
2023/07/21 08:22:42;;;;;;;9.90;4.85;;;;;;;42.77;33.99;97181.94;5029240;28;20037;-76
2023/07/21 08:25:07;;;;;;;7.03;4.50;;;;;;;43.47;33.28;97190.19;5046987;28;20032;-75
2023/07/21 08:27:36;;;;;;;12.70;4.50;;;;;;;41.21;35.74;97187.94;5029887;28;20032;-75
2023/07/21 08:30:02;;;;;;;6.55;4.45;;;;;;;42.40;33.97;97188.50;5046968;28;20056;-73
2023/07/21 08:32:27;;;;;;;9.07;4.78;;;;;;;43.14;33.42;97190.25;5046812;28;20056;-73
2023/07/21 08:34:57;;;;;;;6.15;4.20;;;;;;;43.73;32.64;97188.44;5046504;28;20024;-73
2023/07/21 08:37:22;;;;;;;6.15;4.50;;;;;;;44.39;31.94;97190.59;5029509;28;20071;-74
2023/07/21 08:39:48;;;;;;;9.60;4.60;;;;;;;44.97;30.21;97176.38;5046559;28;20408;-75
2023/07/21 08:42:14;;;;;;;6.00;4.22;;;;;;;44.35;30.57;97166.13;5046484;28;20381;-75
2023/07/21 08:44:40;;;;;;;9.15;4.15;;;;;;;43.39;32.19;97172.00;5046646;28;20036;-74
2023/07/21 08:47:06;;;;;;;6.00;4.00;;;;;;;42.28;33.03;97165.63;5046623;28;20454;-74
2023/07/21 08:49:32;;;;;;;5.40;3.80;;;;;;;42.50;33.54;97163.00;5046445;28;20091;-74
2023/07/21 08:51:58;;;;;;;12.38;4.50;;;;;;;42.13;33.75;97163.91;5046322;28;20043;-74
2023/07/21 08:54:24;;;;;;;6.18;4.22;;;;;;;41.76;34.40;97155.50;5046906;28;20194;-75
2023/07/21 08:56:50;;;;;;;10.30;4.20;;;;;;;41.99;34.48;97160.19;5046248;28;20316;-75
2023/07/21 08:59:18;;;;;;;10.77;3.95;;;;;;;42.53;33.74;97156.75;5030060;28;20028;-76
2023/07/21 09:01:43;;;;;;;7.65;4.07;;;;;;;43.02;32.74;97153.31;5048698;28;20481;-75
2023/07/21 09:04:20;;;;;;;5.55;4.20;;;;;;;43.24;31.84;97148.94;5049949;28;20070;-75
2023/07/21 09:06:52;;;;;;;6.60;4.55;;;;;;;43.63;32.17;97147.22;5049631;28;20064;-75
2023/07/21 09:09:19;;;;;;;6.18;4.35;;;;;;;44.97;29.86;97139.66;5066398;28;20106;-75
2023/07/21 09:11:45;;;;;;;7.55;4.13;;;;;;;44.46;30.04;97139.28;5049558;28;20389;-75
2023/07/21 09:14:11;;;;;;;5.68;5.07;;;;;;;44.34;30.32;97142.72;5066443;28;20020;-75
2023/07/21 09:16:38;;;;;;;8.50;5.30;;;;;;;43.79;30.54;97146.91;5066418;28;20040;-75
2023/07/21 09:19:05;;;;;;;8.60;4.82;;;;;;;45.44;28.95;97142.81;5066251;28;20441;-75
2023/07/21 09:21:31;;;;;;;6.90;4.65;;;;;;;45.53;28.67;97135.97;5066197;28;20094;-75
2023/07/21 09:24:04;;;;;;;12.02;4.25;;;;;;;45.82;28.30;97135.38;5066040;28;20377;-74
2023/07/21 09:26:30;;;;;;;11.85;4.07;;;;;;;44.09;29.15;97121.59;5067392;28;20059;-74
2023/07/21 09:28:56;;;;;;;11.07;3.88;;;;;;;42.44;29.68;97122.03;5065943;28;20024;-74
2023/07/21 09:31:28;;;;;;;8.35;3.83;;;;;;;43.32;29.85;97125.66;5066008;28;20052;-74
2023/07/21 09:33:54;;;;;;;10.02;3.90;;;;;;;44.26;28.47;97120.94;5066243;28;20040;-74
2023/07/21 09:36:22;;;;;;;10.48;4.45;;;;;;;44.12;28.14;97115.31;5065761;28;20032;-74
2023/07/21 09:38:48;;;;;;;9.15;3.97;;;;;;;44.07;29.12;97126.72;5061890;28;20055;-74
2023/07/21 09:41:18;;;;;;;7.20;5.05;;;;;;;44.74;28.66;97115.41;5046293;28;20033;-74
2023/07/21 09:44:13;;;;;;;12.23;4.00;;;;;;;45.25;27.63;97115.63;5029804;28;20527;-73
2023/07/21 09:46:40;;;;;;;5.53;3.30;;;;;;;44.54;28.10;97104.69;5016107;28;20028;-73
2023/07/21 09:49:05;;;;;;;7.25;4.47;;;;;;;45.11;28.11;97102.78;5048633;28;20025;-73
2023/07/21 09:51:32;;;;;;;8.40;5.45;;;;;;;46.21;27.24;97115.41;5056206;28;20028;-74
2023/07/21 09:53:58;;;;;;;7.60;4.53;;;;;;;46.47;27.10;97106.09;5069672;28;20040;-73
2023/07/21 09:56:25;;;;;;;8.48;5.15;;;;;;;46.63;26.90;97107.22;5069803;28;20028;-73
2023/07/21 09:58:53;;;;;;;7.20;4.30;;;;;;;46.57;26.62;97097.22;5069696;28;20038;-74
2023/07/21 10:01:19;;;;;;;6.82;5.20;;;;;;;45.81;27.36;97096.94;5069565;28;20021;-74
2023/07/21 10:03:44;;;;;;;8.70;4.50;;;;;;;45.14;28.24;97093.66;5050205;28;20039;-75
2023/07/21 10:06:10;;;;;;;8.40;5.03;;;;;;;45.56;27.92;97094.94;5049780;28;20029;-75
2023/07/21 10:08:36;;;;;;;7.35;4.07;;;;;;;45.90;27.23;97103.47;5032806;28;20056;-73
2023/07/21 10:11:05;;;;;;;11.48;5.15;;;;;;;45.82;27.41;97103.44;5049472;28;20093;-74
2023/07/21 10:13:32;;;;;;;13.15;4.78;;;;;;;45.86;26.76;97093.97;5049269;28;20476;-75
2023/07/21 10:16:06;;;;;;;6.50;4.05;;;;;;;45.57;27.46;97091.75;5061455;28;20030;-74
2023/07/21 10:18:32;;;;;;;4.30;3.53;;;;;;;46.66;25.81;97083.88;5052397;28;20419;-75
2023/07/21 10:20:58;;;;;;;9.80;4.60;;;;;;;47.95;25.45;97083.97;5069336;28;20028;-74
2023/07/21 10:23:47;;;;;;;7.05;4.43;;;;;;;48.83;24.63;97078.72;5069229;28;20071;-75
2023/07/21 10:26:17;;;;;;;8.05;4.13;;;;;;;48.90;24.58;97080.97;5069105;28;20137;-74
2023/07/21 10:28:44;;;;;;;11.85;4.28;;;;;;;48.01;24.98;97076.91;5069198;28;20024;-75
2023/07/21 10:31:23;;;;;;;4.80;3.85;;;;;;;47.66;25.12;97079.19;5068880;28;20490;-74
2023/07/21 10:34:08;;;;;;;5.30;3.72;;;;;;;47.54;25.67;97075.44;5070223;28;20035;-74
2023/07/21 10:36:52;;;;;;;8.10;4.38;;;;;;;47.72;25.50;97080.63;5069028;28;20023;-74
2023/07/21 10:39:22;;;;;;;5.28;3.55;;;;;;;46.19;26.33;97069.66;5070220;28;20043;-74
2023/07/21 10:41:55;;;;;;;6.85;3.60;;;;;;;46.90;26.19;97078.47;5070523;28;20036;-75
2023/07/21 10:44:21;;;;;;;10.10;4.15;;;;;;;46.70;25.93;97063.00;5068846;28;20028;-75
2023/07/21 10:46:49;;;;;;;7.05;3.90;;;;;;;45.75;27.23;97059.50;5052222;28;20036;-75
2023/07/21 10:49:16;;;;;;;12.98;4.35;;;;;;;46.95;26.16;97058.41;5039221;28;20101;-74
2023/07/21 10:51:47;;;;;;;8.75;3.78;;;;;;;47.31;25.75;97063.59;5050998;28;20499;-75
2023/07/21 10:54:13;;;;;;;13.93;4.13;;;;;;;47.82;25.15;97062.38;5051162;28;20064;-74
2023/07/21 10:56:40;;;;;;;16.50;4.38;;;;;;;47.57;25.74;97057.72;5051482;28;20040;-74
2023/07/21 10:59:06;;;;;;;4.82;3.83;;;;;;;47.79;25.24;97044.03;5051792;28;20457;-74
2023/07/21 11:01:32;;;;;;;7.97;3.80;;;;;;;47.50;25.42;97060.28;5051079;28;20029;-75
2023/07/21 11:03:59;;;;;;;6.47;3.90;;;;;;;46.82;26.46;97059.50;5051157;28;20106;-74
2023/07/21 11:06:24;;;;;;;8.80;3.50;;;;;;;47.59;25.25;97049.72;5034653;28;20029;-74
2023/07/21 11:08:50;;;;;;;10.75;4.03;;;;;;;47.52;25.46;97050.28;5034444;28;20530;-75
2023/07/21 11:11:16;;;;;;;6.93;3.80;;;;;;;47.43;26.25;97048.66;5051509;28;20573;-74
2023/07/21 11:13:41;;;;;;;11.77;4.10;;;;;;;47.01;26.46;97054.22;5034502;28;20055;-74
2023/07/21 11:16:09;;;;;;;6.70;4.15;;;;;;;46.14;27.26;97043.53;5050904;28;20515;-74
2023/07/21 11:18:34;;;;;;;7.78;3.85;;;;;;;45.68;27.23;97039.41;5051080;28;20501;-74
2023/07/21 11:21:00;;;;;;;6.80;4.28;;;;;;;46.63;26.81;97048.56;5051168;28;20112;-75
2023/07/21 11:23:31;;;;;;;6.82;3.80;;;;;;;45.79;27.01;97039.88;5050900;28;20484;-74